Time;durP1;ratioP1;P1;durP2;ratioP2;P2;SDS_P1;SDS_P2;PMS_P1;PMS_P2;Temp;Humidity;BMP_temperature;BMP_pressure;BME280_temperature;BME280_humidity;BME280_pressure;Samples;Min_cycle;Max_cycle;Signal;HPM_P1;HPM_P2
2024/01/23 00:00:15;;;;;;;17.27;5.00;;;;;;;;;;5024593;28;20050;-77
2024/01/23 00:02:41;;;;;;;16.50;4.03;;;;;;;;;;5020426;28;20404;-76
2024/01/23 00:05:07;;;;;;;21.38;5.18;;;;;;;;;;5015720;28;20507;-76
2024/01/23 00:07:33;;;;;;;19.88;5.30;;;;;;;;;;5032054;28;20404;-76
2024/01/23 00:09:59;;;;;;;14.48;4.05;;;;;;;;;;5015346;28;20496;-76
2024/01/23 00:12:25;;;;;;;17.65;4.60;;;;;;;;;;5032440;28;20558;-76
2024/01/23 00:14:51;;;;;;;18.90;4.85;;;;;;;;;;5032457;28;20092;-77
2024/01/23 00:17:17;;;;;;;23.48;5.30;;;;;;;;;;5030273;28;20051;-77
2024/01/23 00:19:43;;;;;;;21.02;4.80;;;;;;;;;;5033394;28;20041;-76
2024/01/23 00:22:09;;;;;;;21.92;4.15;;;;;;;;;;5032692;28;20183;-76
2024/01/23 00:24:35;;;;;;;14.65;4.65;;;;;;;;;;5033832;28;20551;-77
2024/01/23 00:27:01;;;;;;;17.20;4.40;;;;;;;;;;5032843;28;20131;-76
2024/01/23 00:29:27;;;;;;;16.85;4.03;;;;;;;;;;5015081;28;20175;-77
2024/01/23 00:31:53;;;;;;;25.33;4.63;;;;;;;;;;5032081;28;20123;-76
2024/01/23 00:34:19;;;;;;;18.77;3.83;;;;;;;;;;5031194;28;20199;-77
2024/01/23 00:36:45;;;;;;;25.58;5.50;;;;;;;;;;5032369;28;20037;-76
2024/01/23 00:39:11;;;;;;;15.02;3.38;;;;;;;;;;5029782;28;20054;-76
2024/01/23 00:41:38;;;;;;;16.80;4.15;;;;;;;;;;5026260;28;20044;-77
2024/01/23 00:44:04;;;;;;;13.25;4.25;;;;;;;;;;5020403;28;20068;-77
2024/01/23 00:46:30;;;;;;;19.52;3.88;;;;;;;;;;5031409;28;20045;-76
2024/01/23 00:48:56;;;;;;;15.25;3.72;;;;;;;;;;5033356;28;20045;-76
2024/01/23 00:51:22;;;;;;;24.00;4.53;;;;;;;;;;5020679;28;20180;-77
2024/01/23 00:53:48;;;;;;;17.20;3.88;;;;;;;;;;5030709;28;20140;-76
2024/01/23 00:56:14;;;;;;;23.35;5.25;;;;;;;;;;5022920;28;20049;-77
2024/01/23 00:58:40;;;;;;;25.55;5.15;;;;;;;;;;5023724;28;20061;-77
2024/01/23 01:01:06;;;;;;;21.23;4.65;;;;;;;;;;5028168;28;20505;-77
2024/01/23 01:03:32;;;;;;;17.02;4.88;;;;;;;;;;5032186;28;20041;-77
2024/01/23 01:05:58;;;;;;;21.95;5.05;;;;;;;;;;5031011;28;20049;-76
2024/01/23 01:08:25;;;;;;;18.90;4.22;;;;;;;;;;5028517;28;20041;-76
2024/01/23 01:10:51;;;;;;;19.05;4.32;;;;;;;;;;5029309;28;20057;-77
2024/01/23 01:13:17;;;;;;;15.80;3.95;;;;;;;;;;5032688;28;20124;-76
2024/01/23 01:15:43;;;;;;;17.83;3.70;;;;;;;;;;5031199;28;20167;-76
2024/01/23 01:18:09;;;;;;;14.68;4.75;;;;;;;;;;5032356;28;20512;-77
2024/01/23 01:20:35;;;;;;;16.88;5.32;;;;;;;;;;5031059;28;20049;-77
2024/01/23 01:23:01;;;;;;;16.90;4.43;;;;;;;;;;5000660;28;20099;-77
2024/01/23 01:25:27;;;;;;;24.13;4.72;;;;;;;;;;5026000;28;20054;-77
2024/01/23 01:27:53;;;;;;;21.50;4.50;;;;;;;;;;5022815;28;20041;-76
2024/01/23 01:30:19;;;;;;;19.60;4.80;;;;;;;;;;5027140;28;20055;-76
2024/01/23 01:32:45;;;;;;;21.15;4.45;;;;;;;;;;5031890;28;20041;-77
2024/01/23 01:35:11;;;;;;;19.08;4.40;;;;;;;;;;5028158;28;20053;-76
2024/01/23 01:37:37;;;;;;;18.98;4.40;;;;;;;;;;5025371;28;20041;-76
2024/01/23 01:40:03;;;;;;;18.80;4.03;;;;;;;;;;5031151;28;20045;-76
2024/01/23 01:42:29;;;;;;;22.70;4.35;;;;;;;;;;5030389;28;20045;-76
2024/01/23 01:44:55;;;;;;;15.40;3.85;;;;;;;;;;5031688;28;20124;-76
2024/01/23 01:47:22;;;;;;;14.45;4.35;;;;;;;;;;5032260;28;20053;-76
2024/01/23 01:49:48;;;;;;;17.45;4.55;;;;;;;;;;5026147;28;20065;-76
2024/01/23 01:52:14;;;;;;;14.82;4.22;;;;;;;;;;5026330;28;20042;-77
2024/01/23 01:54:42;;;;;;;18.70;4.00;;;;;;;;;;5030787;28;20073;-77
2024/01/23 01:57:08;;;;;;;17.98;4.00;;;;;;;;;;5031534;28;20099;-76
2024/01/23 01:59:34;;;;;;;20.58;4.75;;;;;;;;;;5028697;28;20038;-76
2024/01/23 02:02:01;;;;;;;18.55;4.13;;;;;;;;;;5023077;28;20057;-77
2024/01/23 02:04:27;;;;;;;22.42;4.40;;;;;;;;;;5031250;28;20187;-76
2024/01/23 02:06:53;;;;;;;16.33;3.97;;;;;;;;;;5028754;28;20060;-77
2024/01/23 02:09:19;;;;;;;16.20;4.25;;;;;;;;;;5027736;28;20049;-76
2024/01/23 02:12:00;;;;;;;23.42;5.15;;;;;;;;;;5022009;28;20128;-76
2024/01/23 02:14:26;;;;;;;23.80;4.65;;;;;;;;;;5022369;28;20579;-76
2024/01/23 02:16:53;;;;;;;16.23;4.93;;;;;;;;;;5018664;28;20120;-77
2024/01/23 02:19:19;;;;;;;22.73;4.88;;;;;;;;;;5023785;28;20283;-76
2024/01/23 02:21:45;;;;;;;23.38;5.22;;;;;;;;;;5030290;28;20480;-77
2024/01/23 02:24:11;;;;;;;23.10;5.05;;;;;;;;;;5027046;28;20057;-77
2024/01/23 02:26:38;;;;;;;20.52;5.78;;;;;;;;;;5031523;28;20046;-76
2024/01/23 02:29:04;;;;;;;16.60;4.95;;;;;;;;;;5024451;28;20037;-76
2024/01/23 02:31:30;;;;;;;23.27;5.18;;;;;;;;;;5030392;28;20037;-76
2024/01/23 02:33:56;;;;;;;22.63;4.90;;;;;;;;;;5021705;28;20176;-76
2024/01/23 02:36:22;;;;;;;22.58;4.20;;;;;;;;;;5023708;28;20630;-77
2024/01/23 02:38:48;;;;;;;20.92;5.25;;;;;;;;;;5030128;28;20244;-76
2024/01/23 02:41:14;;;;;;;24.77;5.90;;;;;;;;;;5023775;28;20131;-76
2024/01/23 02:43:40;;;;;;;19.20;4.15;;;;;;;;;;5029438;28;20132;-76
2024/01/23 02:46:06;;;;;;;21.08;4.88;;;;;;;;;;5025254;28;20128;-76
2024/01/23 02:48:32;;;;;;;23.95;4.55;;;;;;;;;;5031140;28;20659;-76
2024/01/23 02:50:58;;;;;;;15.18;3.75;;;;;;;;;;5030968;28;20646;-77
2024/01/23 02:53:24;;;;;;;22.58;4.95;;;;;;;;;;5023797;28;20579;-77
2024/01/23 02:55:50;;;;;;;14.80;4.13;;;;;;;;;;5017509;28;20065;-76
2024/01/23 02:58:17;;;;;;;24.52;5.15;;;;;;;;;;5014288;28;20076;-77
2024/01/23 03:00:44;;;;;;;20.13;5.30;;;;;;;;;;5003167;28;20447;-76
2024/01/23 03:03:10;;;;;;;22.63;5.63;;;;;;;;;;5024174;28;20103;-77
2024/01/23 03:05:36;;;;;;;24.05;5.50;;;;;;;;;;5030321;28;20049;-76
2024/01/23 03:08:02;;;;;;;21.17;5.03;;;;;;;;;;5027717;28;20041;-77
2024/01/23 03:10:28;;;;;;;14.57;4.53;;;;;;;;;;5029592;28;20064;-77
2024/01/23 03:12:54;;;;;;;20.92;4.28;;;;;;;;;;5032850;28;20084;-76
2024/01/23 03:15:20;;;;;;;25.00;4.88;;;;;;;;;;5034613;28;20080;-77
2024/01/23 03:17:46;;;;;;;17.40;4.93;;;;;;;;;;5027497;28;20038;-77
2024/01/23 03:20:12;;;;;;;21.13;4.68;;;;;;;;;;5017169;28;20100;-77
2024/01/23 03:22:38;;;;;;;17.70;4.60;;;;;;;;;;5032544;28;20520;-77
2024/01/23 03:25:05;;;;;;;31.20;5.32;;;;;;;;;;5033010;28;20104;-77
2024/01/23 03:27:31;;;;;;;17.88;4.35;;;;;;;;;;4998320;28;20042;-76
2024/01/23 03:29:57;;;;;;;28.05;5.50;;;;;;;;;;5019988;28;20052;-76
2024/01/23 03:32:23;;;;;;;23.20;5.35;;;;;;;;;;5032853;28;20404;-76
2024/01/23 03:34:49;;;;;;;24.23;5.05;;;;;;;;;;5027052;28;20085;-76
2024/01/23 03:37:16;;;;;;;19.98;6.28;;;;;;;;;;5034015;28;20041;-77
2024/01/23 03:39:42;;;;;;;21.60;5.70;;;;;;;;;;5022851;28;20037;-76
2024/01/23 03:42:08;;;;;;;23.92;4.70;;;;;;;;;;5034047;28;20330;-76
2024/01/23 03:44:34;;;;;;;36.85;6.05;;;;;;;;;;5030444;28;20477;-76
2024/01/23 03:47:00;;;;;;;17.83;4.07;;;;;;;;;;5019342;28;20041;-77
2024/01/23 03:49:27;;;;;;;28.02;5.65;;;;;;;;;;5030063;28;20095;-77
2024/01/23 03:51:53;;;;;;;24.45;5.30;;;;;;;;;;5014761;28;20050;-76
2024/01/23 03:54:19;;;;;;;15.18;4.05;;;;;;;;;;5026367;28;20041;-76
2024/01/23 03:56:45;;;;;;;25.27;5.38;;;;;;;;;;5021204;28;20392;-76
2024/01/23 03:59:11;;;;;;;25.85;6.22;;;;;;;;;;5029021;28;20508;-76
2024/01/23 04:01:37;;;;;;;30.33;5.90;;;;;;;;;;5032772;28;20041;-77
2024/01/23 04:04:03;;;;;;;26.88;5.85;;;;;;;;;;5032623;28;20044;-76
2024/01/23 04:06:29;;;;;;;23.23;5.63;;;;;;;;;;5020877;28;20041;-76
2024/01/23 04:08:56;;;;;;;24.30;5.80;;;;;;;;;;5033112;28;20041;-77
2024/01/23 04:11:22;;;;;;;21.10;4.88;;;;;;;;;;5033611;28;20040;-76
2024/01/23 04:13:48;;;;;;;30.65;6.07;;;;;;;;;;5029107;28;20124;-76
2024/01/23 04:16:14;;;;;;;25.02;5.38;;;;;;;;;;5024792;28;20049;-77
2024/01/23 04:18:40;;;;;;;24.35;5.75;;;;;;;;;;5031724;28;20096;-76
2024/01/23 04:21:06;;;;;;;24.77;5.47;;;;;;;;;;5033865;28;20044;-76
2024/01/23 04:23:32;;;;;;;24.95;5.57;;;;;;;;;;5025282;28;20045;-76
2024/01/23 04:25:59;;;;;;;25.42;5.57;;;;;;;;;;5032322;28;20042;-77
2024/01/23 04:28:25;;;;;;;24.10;5.57;;;;;;;;;;5031511;28;20049;-76
2024/01/23 04:30:52;;;;;;;20.90;5.05;;;;;;;;;;5029898;28;20519;-77
2024/01/23 04:33:19;;;;;;;28.25;6.18;;;;;;;;;;5030082;28;20041;-76
2024/01/23 04:35:45;;;;;;;28.15;6.03;;;;;;;;;;5032592;28;20041;-76
2024/01/23 04:38:11;;;;;;;26.42;5.07;;;;;;;;;;5031550;28;20034;-76
2024/01/23 04:40:37;;;;;;;23.30;4.68;;;;;;;;;;5025775;28;20045;-76
2024/01/23 04:43:03;;;;;;;21.13;5.30;;;;;;;;;;5030520;28;20401;-76
2024/01/23 04:45:29;;;;;;;25.60;5.72;;;;;;;;;;5032257;28;20060;-77
2024/01/23 04:47:55;;;;;;;20.38;4.97;;;;;;;;;;5028532;28;20057;-77
2024/01/23 04:50:21;;;;;;;24.48;5.97;;;;;;;;;;5024360;28;20128;-76
2024/01/23 04:52:47;;;;;;;26.40;6.97;;;;;;;;;;5025463;28;20046;-77
2024/01/23 04:55:13;;;;;;;27.92;6.43;;;;;;;;;;5029761;28;20387;-77
2024/01/23 04:57:39;;;;;;;23.20;5.25;;;;;;;;;;5024684;28;20038;-76
2024/01/23 05:00:05;;;;;;;25.23;5.75;;;;;;;;;;5023658;28;20045;-76
2024/01/23 05:02:31;;;;;;;28.85;5.65;;;;;;;;;;5027497;28;20049;-76
2024/01/23 05:04:58;;;;;;;25.67;5.53;;;;;;;;;;5023416;28;20038;-77
2024/01/23 05:07:24;;;;;;;28.45;6.13;;;;;;;;;;5027133;28;20045;-76
2024/01/23 05:09:50;;;;;;;28.55;5.95;;;;;;;;;;5031291;28;20107;-76
2024/01/23 05:12:16;;;;;;;33.90;6.25;;;;;;;;;;5020298;28;20042;-77
2024/01/23 05:14:42;;;;;;;25.55;6.40;;;;;;;;;;5022363;28;20057;-76
2024/01/23 05:17:08;;;;;;;16.95;4.65;;;;;;;;;;5030692;28;20451;-76
2024/01/23 05:19:34;;;;;;;24.13;5.97;;;;;;;;;;5017051;28;20057;-77
2024/01/23 05:22:00;;;;;;;32.10;6.18;;;;;;;;;;5013229;28;20080;-76
2024/01/23 05:24:27;;;;;;;27.00;5.68;;;;;;;;;;5031087;28;20067;-76
2024/01/23 05:26:53;;;;;;;22.95;6.15;;;;;;;;;;5032290;28;20129;-76
2024/01/23 05:29:19;;;;;;;28.17;6.18;;;;;;;;;;5031106;28;20545;-77
2024/01/23 05:31:45;;;;;;;29.75;6.57;;;;;;;;;;5031048;28;20048;-77
2024/01/23 05:34:11;;;;;;;36.90;7.03;;;;;;;;;;5030760;28;20353;-77
2024/01/23 05:36:37;;;;;;;32.70;7.25;;;;;;;;;;5019151;28;20444;-77
2024/01/23 05:39:04;;;;;;;32.67;7.30;;;;;;;;;;5021281;28;20176;-77
2024/01/23 05:41:30;;;;;;;28.73;6.03;;;;;;;;;;5029993;28;20508;-77
2024/01/23 05:43:57;;;;;;;31.98;6.03;;;;;;;;;;5025871;28;20053;-76
2024/01/23 05:46:23;;;;;;;31.42;6.70;;;;;;;;;;5025368;28;20126;-76
2024/01/23 05:48:49;;;;;;;28.45;6.72;;;;;;;;;;5017185;28;20093;-76
2024/01/23 05:51:15;;;;;;;34.63;6.97;;;;;;;;;;5023733;28;20049;-77
2024/01/23 05:53:41;;;;;;;31.30;6.40;;;;;;;;;;5006503;28;20073;-76
2024/01/23 05:56:07;;;;;;;35.75;6.90;;;;;;;;;;5008508;28;20050;-77
2024/01/23 05:58:33;;;;;;;39.78;6.65;;;;;;;;;;5024072;28;20445;-77
2024/01/23 06:00:59;;;;;;;31.13;6.40;;;;;;;;;;5030681;28;20472;-76
2024/01/23 06:03:26;;;;;;;28.75;7.15;;;;;;;;;;5024866;28;20519;-76
2024/01/23 06:05:52;;;;;;;29.65;6.50;;;;;;;;;;5029023;28;20103;-76
2024/01/23 06:08:18;;;;;;;28.15;6.88;;;;;;;;;;5013082;28;20092;-76
2024/01/23 06:10:44;;;;;;;23.65;6.25;;;;;;;;;;5024544;28;20120;-76
2024/01/23 06:13:10;;;;;;;27.08;5.85;;;;;;;;;;5021922;28;20045;-76
2024/01/23 06:15:36;;;;;;;34.88;6.88;;;;;;;;;;5027542;28;20107;-76
2024/01/23 06:18:03;;;;;;;31.42;6.85;;;;;;;;;;5021393;28;20459;-76
2024/01/23 06:20:29;;;;;;;32.25;7.35;;;;;;;;;;5028985;28;20091;-76
2024/01/23 06:22:55;;;;;;;34.38;6.93;;;;;;;;;;5021983;28;20180;-76
2024/01/23 06:25:21;;;;;;;34.42;7.28;;;;;;;;;;5031221;28;20128;-77
2024/01/23 06:27:47;;;;;;;37.13;6.55;;;;;;;;;;5025554;28;20131;-77
2024/01/23 06:30:14;;;;;;;34.65;7.82;;;;;;;;;;5022421;28;20037;-76
2024/01/23 06:32:40;;;;;;;27.50;6.40;;;;;;;;;;5020644;28;20088;-76
2024/01/23 06:35:06;;;;;;;36.50;7.30;;;;;;;;;;5029943;28;20045;-77
2024/01/23 06:37:33;;;;;;;27.42;6.88;;;;;;;;;;5033251;28;20407;-77
2024/01/23 06:39:59;;;;;;;30.73;7.10;;;;;;;;;;5032248;28;20048;-77
2024/01/23 06:42:25;;;;;;;28.83;6.40;;;;;;;;;;5017804;28;20042;-75
2024/01/23 06:44:51;;;;;;;29.95;6.72;;;;;;;;;;5025129;28;20041;-78
2024/01/23 06:47:17;;;;;;;27.95;6.00;;;;;;;;;;5035585;28;20099;-77
2024/01/23 06:49:43;;;;;;;39.88;7.43;;;;;;;;;;5034795;28;20054;-77
2024/01/23 06:52:09;;;;;;;28.38;6.25;;;;;;;;;;5020903;28;20038;-77
2024/01/23 06:54:35;;;;;;;24.65;5.45;;;;;;;;;;5023214;28;20439;-76
2024/01/23 06:57:01;;;;;;;30.60;6.15;;;;;;;;;;5034566;28;20042;-77
2024/01/23 06:59:28;;;;;;;33.13;6.70;;;;;;;;;;5033517;28;20859;-76
2024/01/23 07:01:54;;;;;;;25.65;6.32;;;;;;;;;;5025196;28;20045;-77
2024/01/23 07:04:20;;;;;;;27.45;7.47;;;;;;;;;;5033502;28;20048;-76
2024/01/23 07:06:46;;;;;;;30.52;6.70;;;;;;;;;;5030057;28;20041;-76
2024/01/23 07:09:13;;;;;;;32.72;7.35;;;;;;;;;;5022414;28;20049;-77
2024/01/23 07:11:40;;;;;;;37.13;6.88;;;;;;;;;;5032241;28;20045;-77
2024/01/23 07:14:06;;;;;;;34.38;6.78;;;;;;;;;;5029498;28;20492;-76
2024/01/23 07:16:32;;;;;;;27.65;7.35;;;;;;;;;;5025749;28;20038;-76
2024/01/23 07:18:58;;;;;;;37.25;7.45;;;;;;;;;;5015104;28;20416;-76
2024/01/23 07:21:24;;;;;;;35.40;7.53;;;;;;;;;;5033450;28;20136;-76
2024/01/23 07:23:50;;;;;;;33.95;6.72;;;;;;;;;;5034189;28;20562;-76
2024/01/23 07:26:16;;;;;;;36.13;5.97;;;;;;;;;;5033510;28;20049;-77
2024/01/23 07:28:42;;;;;;;31.88;6.47;;;;;;;;;;5021595;28;20050;-76
2024/01/23 07:31:11;;;;;;;28.50;5.88;;;;;;;;;;5025025;28;20049;-76
2024/01/23 07:33:37;;;;;;;22.55;5.82;;;;;;;;;;5021138;28;20052;-73
2024/01/23 07:36:03;;;;;;;31.85;5.88;;;;;;;;;;5029564;28;20045;-72
2024/01/23 07:38:29;;;;;;;34.78;6.38;;;;;;;;;;5032927;28;20042;-73
2024/01/23 07:40:55;;;;;;;26.02;5.40;;;;;;;;;;5034102;28;20091;-73
2024/01/23 07:43:30;;;;;;;26.77;5.72;;;;;;;;;;5034591;28;20111;-73
2024/01/23 07:45:56;;;;;;;28.70;6.80;;;;;;;;;;5033130;28;20424;-73
2024/01/23 07:48:22;;;;;;;34.13;7.25;;;;;;;;;;5022642;28;20107;-72
2024/01/23 07:50:48;;;;;;;30.73;6.63;;;;;;;;;;5033834;28;20053;-73
2024/01/23 07:53:14;;;;;;;27.70;6.38;;;;;;;;;;5029967;28;20038;-73
2024/01/23 07:55:40;;;;;;;36.53;7.47;;;;;;;;;;5026977;28;20107;-72
2024/01/23 07:58:08;;;;;;;29.33;5.97;;;;;;;;;;5015907;28;20441;-73
2024/01/23 08:00:34;;;;;;;37.92;6.85;;;;;;;;;;5034739;28;20110;-73
2024/01/23 08:03:00;;;;;;;30.23;5.82;;;;;;;;;;5033951;28;20049;-73
2024/01/23 08:05:29;;;;;;;27.25;5.90;;;;;;;;;;5034753;28;20075;-73
2024/01/23 08:07:55;;;;;;;40.85;7.07;;;;;;;;;;5028167;28;20048;-73
2024/01/23 08:10:21;;;;;;;32.35;6.68;;;;;;;;;;5007890;28;20050;-73
2024/01/23 08:12:47;;;;;;;25.98;5.95;;;;;;;;;;5020179;28;20100;-73
2024/01/23 08:15:13;;;;;;;34.40;7.38;;;;;;;;;;5031857;28;20117;-73
2024/01/23 08:17:39;;;;;;;34.53;6.30;;;;;;;;;;5031064;28;20132;-73
2024/01/23 08:20:08;;;;;;;25.83;6.32;;;;;;;;;;5026461;28;20080;-73
2024/01/23 08:22:34;;;;;;;31.42;5.95;;;;;;;;;;5034065;28;20137;-73
2024/01/23 08:25:00;;;;;;;32.97;6.90;;;;;;;;;;5025349;28;20053;-73
2024/01/23 08:27:26;;;;;;;36.38;7.28;;;;;;;;;;5032199;28;20060;-73
2024/01/23 08:29:52;;;;;;;28.67;7.72;;;;;;;;;;5033896;28;20437;-73
2024/01/23 08:32:19;;;;;;;33.45;6.03;;;;;;;;;;5032629;28;20120;-73
2024/01/23 08:34:45;;;;;;;30.25;6.40;;;;;;;;;;5021910;28;20046;-73
2024/01/23 08:37:11;;;;;;;32.00;6.75;;;;;;;;;;5032714;28;20112;-73
2024/01/23 08:39:37;;;;;;;27.20;6.03;;;;;;;;;;5016011;28;20053;-73
2024/01/23 08:42:03;;;;;;;27.95;6.53;;;;;;;;;;5031075;28;20045;-73
2024/01/23 08:44:29;;;;;;;32.08;7.57;;;;;;;;;;5029866;28;20141;-72
2024/01/23 08:46:55;;;;;;;27.70;6.05;;;;;;;;;;5032878;28;20041;-73
2024/01/23 08:49:21;;;;;;;34.95;7.00;;;;;;;;;;5033731;28;20095;-73
2024/01/23 08:51:47;;;;;;;29.10;7.60;;;;;;;;;;5032312;28;20043;-73
2024/01/23 08:54:18;;;;;;;34.38;7.68;;;;;;;;;;5033515;28;20033;-73
2024/01/23 08:56:45;;;;;;;33.85;6.43;;;;;;;;;;5032085;28;20510;-73
2024/01/23 08:59:11;;;;;;;24.42;5.95;;;;;;;;;;5026417;28;20048;-73
2024/01/23 09:01:37;;;;;;;27.13;6.15;;;;;;;;;;5020534;28;20120;-73
2024/01/23 09:04:03;;;;;;;29.33;7.00;;;;;;;;;;5032505;28;20096;-73
2024/01/23 09:06:29;;;;;;;30.45;6.22;;;;;;;;;;5019764;28;20041;-73
2024/01/23 09:08:56;;;;;;;34.40;6.93;;;;;;;;;;5031266;28;20053;-73
2024/01/23 09:11:22;;;;;;;33.67;6.40;;;;;;;;;;5027357;28;20103;-73
2024/01/23 09:13:48;;;;;;;28.73;7.18;;;;;;;;;;5031057;28;20099;-73
2024/01/23 09:16:14;;;;;;;29.23;6.53;;;;;;;;;;5030987;28;20447;-73
2024/01/23 09:18:42;;;;;;;35.17;7.13;;;;;;;;;;5032349;28;20056;-73
2024/01/23 09:21:08;;;;;;;30.50;6.10;;;;;;;;;;5032670;28;20425;-73
2024/01/23 09:23:38;;;;;;;32.33;6.72;;;;;;;;;;5032282;28;20045;-73
2024/01/23 09:26:04;;;;;;;36.25;7.53;;;;;;;;;;5032622;28;20504;-73
2024/01/23 09:28:30;;;;;;;27.35;5.35;;;;;;;;;;5032573;28;20496;-73
2024/01/23 09:30:56;;;;;;;29.50;6.22;;;;;;;;;;5033127;28;20041;-73
2024/01/23 09:33:22;;;;;;;27.27;6.60;;;;;;;;;;5031484;28;20041;-73
2024/01/23 09:35:48;;;;;;;21.88;5.82;;;;;;;;;;5029886;28;20429;-73
2024/01/23 09:38:14;;;;;;;36.53;6.20;;;;;;;;;;5031499;28;20084;-73
2024/01/23 09:40:48;;;;;;;25.73;6.50;;;;;;;;;;5032408;28;20038;-73
2024/01/23 09:43:15;;;;;;;37.15;6.80;;;;;;;;;;5013987;28;20049;-73
2024/01/23 09:45:41;;;;;;;39.95;6.68;;;;;;;;;;5031315;28;20076;-73
2024/01/23 09:48:08;;;;;;;30.58;6.88;;;;;;;;;;5017808;28;20180;-73
2024/01/23 09:50:34;;;;;;;32.78;7.13;;;;;;;;;;5026234;28;20042;-73
2024/01/23 09:53:00;;;;;;;31.17;5.78;;;;;;;;;;5030211;28;20045;-73
2024/01/23 09:55:26;;;;;;;32.83;7.53;;;;;;;;;;5022117;28;20373;-73
2024/01/23 09:57:52;;;;;;;37.35;7.00;;;;;;;;;;5027982;28;20123;-73
2024/01/23 10:00:19;;;;;;;38.97;7.07;;;;;;;;;;5031392;28;20037;-73
2024/01/23 10:02:45;;;;;;;33.15;6.57;;;;;;;;;;5032162;28;20053;-73
2024/01/23 10:05:16;;;;;;;38.42;6.90;;;;;;;;;;5020093;28;20050;-73
2024/01/23 10:07:42;;;;;;;27.70;6.20;;;;;;;;;;5029090;28;20050;-73
2024/01/23 10:10:14;;;;;;;25.92;5.93;;;;;;;;;;5014736;28;20050;-73
2024/01/23 10:12:44;;;;;;;26.02;5.95;;;;;;;;;;5036361;28;20033;-73
2024/01/23 10:15:11;;;;;;;26.90;6.80;;;;;;;;;;5035683;28;20089;-73
2024/01/23 10:17:37;;;;;;;29.50;7.18;;;;;;;;;;5025737;28;20055;-73
2024/01/23 10:20:04;;;;;;;30.77;6.07;;;;;;;;;;5018444;28;20061;-73
2024/01/23 10:22:30;;;;;;;26.63;6.65;;;;;;;;;;5029521;28;20108;-73
2024/01/23 10:24:56;;;;;;;27.23;6.35;;;;;;;;;;5032193;28;20077;-73
2024/01/23 10:27:22;;;;;;;31.00;7.40;;;;;;;;;;5030458;28;20513;-73
2024/01/23 10:29:50;;;;;;;32.83;6.18;;;;;;;;;;5034887;28;20124;-73
2024/01/23 10:32:16;;;;;;;29.65;5.95;;;;;;;;;;5034959;28;20045;-73
2024/01/23 10:34:42;;;;;;;26.48;6.28;;;;;;;;;;5033851;28;20067;-73
2024/01/23 10:37:09;;;;;;;30.63;6.78;;;;;;;;;;5031719;28;20045;-73
2024/01/23 10:39:35;;;;;;;31.08;6.85;;;;;;;;;;5031750;28;20041;-73
2024/01/23 10:42:02;;;;;;;28.60;6.07;;;;;;;;;;5019734;28;20041;-73
2024/01/23 10:44:30;;;;;;;24.35;6.00;;;;;;;;;;5014777;28;20048;-73
2024/01/23 10:46:56;;;;;;;26.00;6.53;;;;;;;;;;5035278;28;20492;-73
2024/01/23 10:49:23;;;;;;;22.05;5.82;;;;;;;;;;5035906;28;20037;-73
2024/01/23 10:51:51;;;;;;;23.95;5.35;;;;;;;;;;5035312;28;20492;-73
2024/01/23 10:54:30;;;;;;;28.23;6.35;;;;;;;;;;5035331;28;20049;-73
2024/01/23 10:56:57;;;;;;;33.03;7.57;;;;;;;;;;5035406;28;20049;-73
2024/01/23 10:59:26;;;;;;;28.02;6.43;;;;;;;;;;5034602;28;20047;-73
2024/01/23 11:01:57;;;;;;;30.52;6.50;;;;;;;;;;5035037;28;20128;-73
2024/01/23 11:04:23;;;;;;;30.70;6.28;;;;;;;;;;5034865;28;20037;-73
2024/01/23 11:07:10;;;;;;;25.35;6.13;;;;;;;;;;5025341;28;20054;-73
2024/01/23 11:09:43;;;;;;;27.42;6.53;;;;;;;;;;5032637;28;20107;-73
2024/01/23 11:12:19;;;;;;;30.42;5.60;;;;;;;;;;5034322;28;20045;-73
2024/01/23 11:15:11;;;;;;;25.02;5.93;;;;;;;;;;5035251;28;20064;-73
2024/01/23 11:17:39;;;;;;;27.77;6.95;;;;;;;;;;5018473;28;20452;-73
2024/01/23 11:20:10;;;;;;;24.40;6.10;;;;;;;;;;5031278;28;20489;-73
2024/01/23 11:22:36;;;;;;;26.73;6.30;;;;;;;;;;5021499;28;20061;-73
2024/01/23 11:25:06;;;;;;;25.55;5.85;;;;;;;;;;5034965;28;20416;-73
2024/01/23 11:27:33;;;;;;;27.48;5.65;;;;;;;;;;5034115;28;20091;-73
2024/01/23 11:30:00;;;;;;;24.60;5.55;;;;;;;;;;5033657;28;20378;-73
2024/01/23 11:32:29;;;;;;;31.27;6.47;;;;;;;;;;5021963;28;20125;-73
2024/01/23 11:34:59;;;;;;;24.90;5.85;;;;;;;;;;5034980;28;20049;-73
2024/01/23 11:37:28;;;;;;;31.52;6.30;;;;;;;;;;5027534;28;20052;-72
2024/01/23 11:39:54;;;;;;;26.48;6.32;;;;;;;;;;5028349;28;20050;-74
2024/01/23 11:42:20;;;;;;;26.55;5.18;;;;;;;;;;5027954;28;20056;-74
2024/01/23 11:44:46;;;;;;;22.23;5.40;;;;;;;;;;5027766;28;20041;-73
2024/01/23 11:47:12;;;;;;;19.88;5.30;;;;;;;;;;5027361;28;20046;-74
2024/01/23 11:49:39;;;;;;;22.23;4.90;;;;;;;;;;5034017;28;20052;-74
2024/01/23 11:52:05;;;;;;;21.92;5.47;;;;;;;;;;5024289;28;20052;-73
2024/01/23 11:54:32;;;;;;;24.83;6.35;;;;;;;;;;5034344;28;20415;-74
2024/01/23 11:56:58;;;;;;;22.67;6.07;;;;;;;;;;5034360;28;20072;-73
2024/01/23 11:59:24;;;;;;;26.38;5.68;;;;;;;;;;5033129;28;20077;-73
2024/01/23 12:01:50;;;;;;;25.70;5.80;;;;;;;;;;5031734;28;20068;-74
2024/01/23 12:04:16;;;;;;;26.13;4.90;;;;;;;;;;5024363;28;20046;-74
2024/01/23 12:06:42;;;;;;;24.00;5.35;;;;;;;;;;5034258;28;20048;-73
2024/01/23 12:09:08;;;;;;;21.88;6.13;;;;;;;;;;5033903;28;20537;-73
2024/01/23 12:11:36;;;;;;;21.00;4.93;;;;;;;;;;5033892;28;20079;-73
2024/01/23 12:14:02;;;;;;;22.95;5.50;;;;;;;;;;5031289;28;20057;-73
2024/01/23 12:16:28;;;;;;;23.00;5.68;;;;;;;;;;5033704;28;20041;-73
2024/01/23 12:18:57;;;;;;;25.13;5.45;;;;;;;;;;5031498;28;20124;-73
2024/01/23 12:21:23;;;;;;;22.05;5.22;;;;;;;;;;5026908;28;20037;-73
2024/01/23 12:23:50;;;;;;;27.88;5.93;;;;;;;;;;5033662;28;20400;-73
2024/01/23 12:26:17;;;;;;;28.25;5.25;;;;;;;;;;5033167;28;20486;-73
2024/01/23 12:28:44;;;;;;;22.50;4.70;;;;;;;;;;5033525;28;20050;-73
2024/01/23 12:31:11;;;;;;;24.08;5.72;;;;;;;;;;5032362;28;20111;-73
2024/01/23 12:33:41;;;;;;;17.70;4.30;;;;;;;;;;5015778;28;20160;-73
2024/01/23 12:36:07;;;;;;;27.10;5.53;;;;;;;;;;5033611;28;20045;-73
2024/01/23 12:38:35;;;;;;;24.20;5.50;;;;;;;;;;5033784;28;20049;-73
2024/01/23 12:41:01;;;;;;;22.08;5.25;;;;;;;;;;5033592;28;20046;-74
2024/01/23 12:43:28;;;;;;;20.48;5.22;;;;;;;;;;5033965;28;20042;-74
2024/01/23 12:45:55;;;;;;;23.63;5.70;;;;;;;;;;5033502;28;20045;-73
2024/01/23 12:48:24;;;;;;;21.08;4.95;;;;;;;;;;5033624;28;20083;-73
2024/01/23 12:50:50;;;;;;;27.05;5.20;;;;;;;;;;5032175;28;20136;-73
2024/01/23 12:53:18;;;;;;;19.67;4.50;;;;;;;;;;5031949;28;20037;-73
2024/01/23 12:55:44;;;;;;;23.83;5.43;;;;;;;;;;5031527;28;20095;-73
2024/01/23 12:58:10;;;;;;;17.95;4.97;;;;;;;;;;5031482;28;20041;-73
2024/01/23 13:00:36;;;;;;;27.65;5.10;;;;;;;;;;5033024;28;20045;-73
2024/01/23 13:03:04;;;;;;;21.10;5.68;;;;;;;;;;5031037;28;20080;-73
2024/01/23 13:05:30;;;;;;;18.08;4.20;;;;;;;;;;5033055;28;20041;-73
2024/01/23 13:07:56;;;;;;;20.75;6.07;;;;;;;;;;5013530;28;20052;-73
2024/01/23 13:10:22;;;;;;;16.33;4.10;;;;;;;;;;5021301;28;20054;-73
2024/01/23 13:12:51;;;;;;;20.25;5.25;;;;;;;;;;5031941;28;20049;-73
2024/01/23 13:15:17;;;;;;;18.13;4.93;;;;;;;;;;5014125;28;20523;-73
2024/01/23 13:17:43;;;;;;;25.38;5.15;;;;;;;;;;5031182;28;20064;-73
2024/01/23 13:20:13;;;;;;;21.77;5.40;;;;;;;;;;5033001;28;20052;-73
2024/01/23 13:22:43;;;;;;;27.98;5.82;;;;;;;;;;5019879;28;20515;-73
2024/01/23 13:25:09;;;;;;;19.35;4.25;;;;;;;;;;5032008;28;20049;-73
2024/01/23 13:27:36;;;;;;;18.67;5.32;;;;;;;;;;5032663;28;20065;-73
2024/01/23 13:30:02;;;;;;;17.55;4.60;;;;;;;;;;5032632;28;20091;-73
2024/01/23 13:32:29;;;;;;;18.48;5.25;;;;;;;;;;5019608;28;20408;-73
2024/01/23 13:34:55;;;;;;;22.83;5.03;;;;;;;;;;5032889;28;20045;-73
2024/01/23 13:37:21;;;;;;;32.13;5.90;;;;;;;;;;5025304;28;20124;-73
2024/01/23 13:39:48;;;;;;;25.90;5.85;;;;;;;;;;5030808;28;20046;-73
2024/01/23 13:42:14;;;;;;;25.85;5.00;;;;;;;;;;5029156;28;20057;-73
2024/01/23 13:44:40;;;;;;;17.35;4.15;;;;;;;;;;5028355;28;20045;-73
2024/01/23 13:47:07;;;;;;;23.25;5.10;;;;;;;;;;5024183;28;20038;-75
2024/01/23 13:49:33;;;;;;;20.75;5.38;;;;;;;;;;5006214;28;20048;-73
2024/01/23 13:51:59;;;;;;;20.08;5.22;;;;;;;;;;5021885;28;20042;-73
2024/01/23 13:54:25;;;;;;;24.77;5.18;;;;;;;;;;5029893;28;20045;-74
2024/01/23 13:56:51;;;;;;;24.27;5.32;;;;;;;;;;5031898;28;20049;-74
2024/01/23 13:59:17;;;;;;;23.08;5.22;;;;;;;;;;5031105;28;20107;-73
2024/01/23 14:01:43;;;;;;;26.70;4.90;;;;;;;;;;5029033;28;20397;-74
2024/01/23 14:04:09;;;;;;;27.48;5.57;;;;;;;;;;5014468;28;20045;-74
2024/01/23 14:06:35;;;;;;;28.95;5.78;;;;;;;;;;5031559;28;20049;-74
2024/01/23 14:09:02;;;;;;;23.73;5.15;;;;;;;;;;5032160;28;20049;-75
2024/01/23 14:11:28;;;;;;;20.02;5.03;;;;;;;;;;5032244;28;20060;-75
2024/01/23 14:13:54;;;;;;;19.25;5.32;;;;;;;;;;5031750;28;20061;-75
2024/01/23 14:16:20;;;;;;;26.10;5.40;;;;;;;;;;5031944;28;20053;-75
2024/01/23 14:18:46;;;;;;;23.60;4.57;;;;;;;;;;5024477;28;20069;-74
2024/01/23 14:21:13;;;;;;;22.25;5.10;;;;;;;;;;5029297;28;20053;-74
2024/01/23 14:23:39;;;;;;;22.85;4.60;;;;;;;;;;5030425;28;20061;-75
2024/01/23 14:26:05;;;;;;;26.50;5.78;;;;;;;;;;5017313;28;20043;-74